createdAt,value
2023-05-02T00:01:22.860Z,100.00
2023-05-02T00:03:50.592Z,100.00
2023-05-02T00:06:20.842Z,100.00
2023-05-02T00:08:49.575Z,100.00
2023-05-02T00:11:17.382Z,100.00
2023-05-02T00:13:44.654Z,100.00
2023-05-02T00:16:11.763Z,100.00
2023-05-02T00:18:39.184Z,100.00
2023-05-02T00:21:06.747Z,99.55
2023-05-02T00:23:35.822Z,98.31
2023-05-02T00:26:02.524Z,98.04
2023-05-02T00:28:29.842Z,99.52
2023-05-02T00:30:57.455Z,99.71
2023-05-02T00:33:25.732Z,99.58
2023-05-02T00:35:53.372Z,99.52
2023-05-02T00:38:21.193Z,99.64
2023-05-02T00:40:51.396Z,99.90
2023-05-02T00:43:18.990Z,99.90
2023-05-02T00:45:46.750Z,99.49
2023-05-02T00:48:14.166Z,98.95
2023-05-02T00:50:43.246Z,98.66
2023-05-02T00:53:11.213Z,99.80
2023-05-02T00:55:39.078Z,99.97
2023-05-02T00:58:11.651Z,100.00
2023-05-02T01:00:59.038Z,99.92
2023-05-02T01:03:37.683Z,99.80
2023-05-02T01:06:20.141Z,99.10
2023-05-02T01:08:56.399Z,99.01
2023-05-02T01:11:32.579Z,99.00
2023-05-02T01:14:04.223Z,98.25
2023-05-02T01:16:33.141Z,98.12
2023-05-02T01:19:03.748Z,98.19
2023-05-02T01:21:31.886Z,98.16
2023-05-02T01:24:07.377Z,97.86
2023-05-02T01:26:46.447Z,97.77
2023-05-02T01:29:17.890Z,97.51
2023-05-02T01:31:49.937Z,97.71
2023-05-02T01:34:20.520Z,97.57
2023-05-02T01:36:50.646Z,97.16
2023-05-02T01:39:22.063Z,96.54
2023-05-02T01:41:52.048Z,96.50
2023-05-02T01:44:22.929Z,95.99
2023-05-02T01:46:53.338Z,95.47
2023-05-02T01:49:23.517Z,95.28
2023-05-02T01:51:52.204Z,94.69
2023-05-02T01:54:23.350Z,94.35
2023-05-02T01:56:52.026Z,94.28
2023-05-02T01:59:24.187Z,94.17
2023-05-02T02:01:52.895Z,94.40
2023-05-02T02:04:22.108Z,93.96
2023-05-02T02:06:55.850Z,93.84
2023-05-02T02:09:23.200Z,93.84
2023-05-02T02:11:57.806Z,93.21
2023-05-02T02:14:33.820Z,93.45
2023-05-02T02:17:05.551Z,93.31
2023-05-02T02:19:33.904Z,93.66
2023-05-02T02:22:03.696Z,93.42
2023-05-02T02:24:33.011Z,93.27
2023-05-02T02:27:00.527Z,93.09
2023-05-02T02:29:29.985Z,92.67
2023-05-02T02:31:57.388Z,92.29
2023-05-02T02:34:24.631Z,91.71
2023-05-02T02:36:58.374Z,91.60
2023-05-02T02:39:39.965Z,92.20
2023-05-02T02:42:13.505Z,91.78
2023-05-02T02:44:52.786Z,91.10
2023-05-02T02:47:28.293Z,90.93
2023-05-02T02:50:12.129Z,90.95
2023-05-02T02:52:51.001Z,91.25
2023-05-02T02:55:29.181Z,90.88
2023-05-02T02:58:00.506Z,91.47
2023-05-02T03:00:29.852Z,91.49
2023-05-02T03:02:57.580Z,91.34
2023-05-02T03:05:25.855Z,91.28
2023-05-02T03:07:53.572Z,91.22
2023-05-02T03:10:23.212Z,91.42
2023-05-02T03:12:50.842Z,91.92
2023-05-02T03:15:50.865Z,92.15
2023-05-02T03:18:18.618Z,92.47
2023-05-02T03:20:46.377Z,92.52
2023-05-02T03:23:14.071Z,92.84
2023-05-02T03:25:41.563Z,92.80
2023-05-02T03:28:08.784Z,92.49
2023-05-02T03:30:38.114Z,91.94
2023-05-02T03:33:05.699Z,91.87
2023-05-02T03:35:33.031Z,91.92
2023-05-02T03:38:00.523Z,91.57
2023-05-02T03:40:28.368Z,90.76
2023-05-02T03:42:55.789Z,90.78
2023-05-02T03:45:23.167Z,91.29
2023-05-02T03:47:51.548Z,90.78
2023-05-02T03:50:19.591Z,90.71
2023-05-02T03:52:47.078Z,92.46
2023-05-02T03:55:14.621Z,91.80
2023-05-02T03:57:41.851Z,91.82
2023-05-02T04:00:10.882Z,92.26
2023-05-02T04:02:38.532Z,92.46
2023-05-02T04:05:08.717Z,91.41
2023-05-02T04:07:35.818Z,91.74
2023-05-02T04:10:03.520Z,91.34
2023-05-02T04:12:31.306Z,92.17
2023-05-02T04:14:58.679Z,92.57
2023-05-02T04:17:26.336Z,92.43
2023-05-02T04:19:53.714Z,92.77
2023-05-02T04:22:22.313Z,94.32
2023-05-02T04:24:49.845Z,94.63
2023-05-02T04:27:17.158Z,95.09
2023-05-02T04:29:44.556Z,94.75
2023-05-02T04:32:12.158Z,95.03
2023-05-02T04:34:40.425Z,94.47
2023-05-02T04:37:07.743Z,94.04
2023-05-02T04:39:36.796Z,94.05
2023-05-02T04:42:04.450Z,95.04
2023-05-02T04:44:31.964Z,96.69
2023-05-02T04:46:59.679Z,95.79
2023-05-02T04:49:27.296Z,95.22
2023-05-02T04:51:54.874Z,96.83
2023-05-02T04:54:22.276Z,98.53
2023-05-02T04:56:52.305Z,96.93
2023-05-02T04:59:19.322Z,96.58
2023-05-02T05:01:47.393Z,96.79
2023-05-02T05:04:14.996Z,97.04
2023-05-02T05:06:42.526Z,97.61
2023-05-02T05:09:09.976Z,99.38
2023-05-02T05:11:37.590Z,99.38
2023-05-02T05:14:06.559Z,99.89
2023-05-02T05:16:33.826Z,100.00
2023-05-02T05:19:01.246Z,100.00
2023-05-02T05:21:28.715Z,100.00
2023-05-02T05:23:55.817Z,99.10
2023-05-02T05:26:22.596Z,98.03
2023-05-02T05:28:49.921Z,97.27
2023-05-02T05:31:19.040Z,97.43
2023-05-02T05:33:46.444Z,97.10
2023-05-02T05:36:15.085Z,96.96
2023-05-02T05:38:42.266Z,97.23
2023-05-02T05:41:11.601Z,96.73
2023-05-02T05:43:38.811Z,97.86
2023-05-02T05:46:06.135Z,98.98
2023-05-02T05:48:35.561Z,99.47
2023-05-02T05:51:06.534Z,98.36
2023-05-02T05:53:34.008Z,97.24
2023-05-02T05:56:09.915Z,98.20
2023-05-02T05:58:37.720Z,99.74
2023-05-02T06:01:05.369Z,100.00
2023-05-02T06:03:32.814Z,99.03
2023-05-02T06:06:01.900Z,99.22
2023-05-02T06:08:29.549Z,98.80
2023-05-02T06:10:57.284Z,99.41
2023-05-02T06:13:25.222Z,100.00
2023-05-02T06:15:52.891Z,100.00
2023-05-02T06:18:20.221Z,99.09
2023-05-02T06:20:48.129Z,98.33
2023-05-02T06:23:18.264Z,97.95
2023-05-02T06:25:45.166Z,96.97
2023-05-02T06:28:12.330Z,96.68
2023-05-02T06:30:40.304Z,97.35
2023-05-02T06:33:09.612Z,97.12
2023-05-02T06:35:36.992Z,95.98
2023-05-02T06:38:04.554Z,94.52
2023-05-02T06:40:35.117Z,93.54
2023-05-02T06:43:02.308Z,92.09
2023-05-02T06:45:29.606Z,91.69
2023-05-02T06:47:56.931Z,91.64
2023-05-02T06:50:26.435Z,91.16
2023-05-02T06:52:54.299Z,89.62
2023-05-02T06:55:21.526Z,89.64
2023-05-02T06:57:51.262Z,89.44
2023-05-02T07:00:19.914Z,87.28
2023-05-02T07:02:48.402Z,87.37
2023-05-02T07:05:16.281Z,86.76
2023-05-02T07:07:44.111Z,85.43
2023-05-02T07:10:12.365Z,86.34
2023-05-02T07:12:39.684Z,86.25
2023-05-02T07:15:09.264Z,84.58
2023-05-02T07:17:36.453Z,85.39
2023-05-02T07:20:04.411Z,85.50
2023-05-02T07:22:32.149Z,84.37
2023-05-02T07:25:01.026Z,83.50
2023-05-02T07:27:28.532Z,83.89
2023-05-02T07:29:56.561Z,83.81
2023-05-02T07:32:26.118Z,84.04
2023-05-02T07:34:53.744Z,83.57
2023-05-02T07:37:21.145Z,83.43
2023-05-02T07:39:48.574Z,83.28
2023-05-02T07:42:16.069Z,83.29
2023-05-02T07:44:44.237Z,83.09
2023-05-02T07:47:11.809Z,83.05
2023-05-02T07:49:40.780Z,83.84
2023-05-02T07:52:07.939Z,83.51
2023-05-02T07:54:34.781Z,82.96
2023-05-02T07:57:01.508Z,81.37
2023-05-02T07:59:28.616Z,81.84
2023-05-02T08:01:56.128Z,81.05
2023-05-02T08:04:23.770Z,81.90
2023-05-02T08:06:51.995Z,82.75
2023-05-02T08:09:19.700Z,81.93
2023-05-02T08:11:48.164Z,82.33
2023-05-02T08:14:17.378Z,82.07
2023-05-02T08:16:46.766Z,82.21
2023-05-02T08:19:15.640Z,82.07
2023-05-02T08:21:43.757Z,81.05
2023-05-02T08:24:13.237Z,80.22
2023-05-02T08:26:40.891Z,79.79
2023-05-02T08:29:07.720Z,78.92
2023-05-02T08:31:35.840Z,77.89
2023-05-02T08:34:02.926Z,77.64
2023-05-02T08:36:30.719Z,77.28
2023-05-02T08:38:58.715Z,76.12
2023-05-02T08:41:30.048Z,76.35
2023-05-02T08:43:58.506Z,76.27
2023-05-02T08:46:26.733Z,74.23
2023-05-02T08:48:55.979Z,73.55
2023-05-02T08:51:24.843Z,72.03
2023-05-02T08:53:54.722Z,71.24
2023-05-02T08:56:21.621Z,72.08
2023-05-02T08:58:51.720Z,72.83
2023-05-02T09:01:22.936Z,71.51
2023-05-02T09:03:51.837Z,70.91
2023-05-02T09:06:21.805Z,71.58
2023-05-02T09:08:51.003Z,71.33
2023-05-02T09:11:19.627Z,68.62
2023-05-02T09:13:47.330Z,67.38
2023-05-02T09:16:18.164Z,66.14
2023-05-02T09:18:46.675Z,65.61
2023-05-02T09:21:19.010Z,64.73
2023-05-02T09:23:49.097Z,64.30
2023-05-02T09:26:20.445Z,62.30
2023-05-02T09:28:49.802Z,62.22
2023-05-02T09:31:43.785Z,61.94
2023-05-02T09:34:14.386Z,60.61
2023-05-02T09:36:43.467Z,58.16
2023-05-02T09:39:11.974Z,59.22
2023-05-02T09:41:42.775Z,59.85
2023-05-02T09:44:12.715Z,58.56
2023-05-02T09:46:46.440Z,59.06
2023-05-02T09:49:14.295Z,58.93
2023-05-02T09:51:41.901Z,56.52
2023-05-02T09:54:10.280Z,53.56
2023-05-02T09:56:53.594Z,54.96
2023-05-02T09:59:20.689Z,53.43
2023-05-02T10:01:56.182Z,54.42
2023-05-02T10:04:24.760Z,54.15
2023-05-02T10:06:55.490Z,55.12
2023-05-02T10:09:24.103Z,57.43
2023-05-02T10:11:53.793Z,54.67
2023-05-02T10:14:21.935Z,56.00
2023-05-02T10:16:58.646Z,56.23
2023-05-02T10:19:31.863Z,53.51
2023-05-02T10:22:00.197Z,53.87
2023-05-02T10:24:29.579Z,53.63
2023-05-02T10:26:56.710Z,54.49
2023-05-02T10:29:24.790Z,55.09
2023-05-02T10:31:54.225Z,54.12
2023-05-02T10:34:22.584Z,51.97
2023-05-02T10:36:50.155Z,52.80
2023-05-02T10:39:20.449Z,50.16
2023-05-02T10:41:48.076Z,51.78
2023-05-02T10:44:16.867Z,52.19
2023-05-02T10:46:45.053Z,52.25
2023-05-02T10:49:15.177Z,51.95
2023-05-02T10:51:45.225Z,52.33
2023-05-02T10:54:31.139Z,52.67
2023-05-02T10:57:07.740Z,52.74
2023-05-02T10:59:37.370Z,50.31
2023-05-02T11:02:07.136Z,51.21
2023-05-02T11:05:00.801Z,51.57
2023-05-02T11:07:28.081Z,51.88
2023-05-02T11:10:28.787Z,51.84
2023-05-02T11:12:57.858Z,51.92
2023-05-02T11:15:56.670Z,49.42
2023-05-02T11:18:23.865Z,48.79
2023-05-02T11:21:25.822Z,50.05
2023-05-02T11:23:52.693Z,50.87
2023-05-02T11:26:22.988Z,50.96
2023-05-02T11:28:52.065Z,50.94
2023-05-02T11:32:01.589Z,49.53
2023-05-02T11:34:29.116Z,51.77
2023-05-02T11:36:57.937Z,51.55
2023-05-02T11:39:24.611Z,49.74
2023-05-02T11:41:52.148Z,48.16
2023-05-02T11:44:18.907Z,48.83
2023-05-02T11:46:46.946Z,49.50
2023-05-02T11:49:15.263Z,48.59
2023-05-02T11:51:44.214Z,50.17
2023-05-02T11:54:21.301Z,50.23
2023-05-02T11:56:48.557Z,50.22
2023-05-02T11:59:15.625Z,50.13
2023-05-02T12:01:49.433Z,50.53
2023-05-02T12:04:16.946Z,51.11
2023-05-02T12:06:55.909Z,49.42
2023-05-02T12:09:25.359Z,48.36
2023-05-02T12:11:53.130Z,48.28
2023-05-02T12:14:28.073Z,50.17
2023-05-02T12:16:55.707Z,48.05
2023-05-02T12:19:23.756Z,49.75
2023-05-02T12:21:51.423Z,46.33
2023-05-02T12:24:19.067Z,45.41
2023-05-02T12:26:48.259Z,44.55
2023-05-02T12:29:16.541Z,42.42
2023-05-02T12:31:52.791Z,40.82
2023-05-02T12:34:33.468Z,42.29
2023-05-02T12:37:01.967Z,40.59
2023-05-02T12:39:36.371Z,37.67
2023-05-02T12:42:12.885Z,36.71
2023-05-02T12:44:45.010Z,39.12
2023-05-02T12:47:14.074Z,40.59
2023-05-02T12:49:52.475Z,42.44
2023-05-02T12:52:20.881Z,42.73
2023-05-02T12:54:49.008Z,43.21
2023-05-02T12:57:26.366Z,40.30
2023-05-02T12:59:54.142Z,39.66
2023-05-02T13:02:22.544Z,38.27
2023-05-02T13:04:49.633Z,38.81
2023-05-02T13:07:17.221Z,37.77
2023-05-02T13:09:44.600Z,36.64
2023-05-02T13:12:12.876Z,37.90
2023-05-02T13:14:42.905Z,40.15
2023-05-02T13:17:10.528Z,39.36
2023-05-02T13:19:40.561Z,39.30
2023-05-02T13:22:12.285Z,38.62
2023-05-02T13:24:39.660Z,39.64
2023-05-02T13:27:07.419Z,40.64
2023-05-02T13:29:34.481Z,39.62
2023-05-02T13:32:03.731Z,38.02
2023-05-02T13:34:31.652Z,39.04
2023-05-02T13:36:58.644Z,38.85
2023-05-02T13:39:26.671Z,37.12
2023-05-02T13:41:54.674Z,38.37
2023-05-02T13:44:23.003Z,36.62
2023-05-02T13:46:52.154Z,37.45
2023-05-02T13:49:20.740Z,38.34
2023-05-02T13:51:48.670Z,38.91
2023-05-02T13:54:16.583Z,39.71
2023-05-02T13:56:44.152Z,40.79
2023-05-02T13:59:11.885Z,41.27
2023-05-02T14:01:39.511Z,40.92
2023-05-02T14:04:07.015Z,40.50
2023-05-02T14:06:37.000Z,41.08
2023-05-02T14:09:08.663Z,40.08
2023-05-02T14:11:35.701Z,39.61
2023-05-02T14:14:03.467Z,38.87
2023-05-02T14:16:31.171Z,40.28
2023-05-02T14:18:59.138Z,40.00
2023-05-02T14:21:26.515Z,41.44
2023-05-02T14:23:55.595Z,41.63
2023-05-02T14:26:22.615Z,40.99
2023-05-02T14:28:49.540Z,41.03
2023-05-02T14:31:17.210Z,40.32
2023-05-02T14:33:45.140Z,39.02
2023-05-02T14:36:12.791Z,39.60
2023-05-02T14:38:40.372Z,39.55
2023-05-02T14:41:08.577Z,39.67
2023-05-02T14:43:35.878Z,40.23
2023-05-02T14:46:02.976Z,40.42
2023-05-02T14:48:30.662Z,40.36
2023-05-02T14:50:57.969Z,40.98
2023-05-02T14:53:25.389Z,41.46
2023-05-02T14:55:52.814Z,41.75
2023-05-02T14:58:22.480Z,41.34
2023-05-02T15:00:50.067Z,41.14
2023-05-02T15:03:17.955Z,40.76
2023-05-02T15:05:45.541Z,40.53
2023-05-02T15:08:12.365Z,41.27
2023-05-02T15:10:40.514Z,41.22
2023-05-02T15:13:09.196Z,40.14
2023-05-02T15:15:37.738Z,39.86
2023-05-02T15:18:05.688Z,40.55
2023-05-02T15:20:33.169Z,40.91
2023-05-02T15:23:01.619Z,41.25
2023-05-02T15:25:29.722Z,39.38
2023-05-02T15:27:57.148Z,39.42
2023-05-02T15:30:25.031Z,40.12
2023-05-02T15:32:54.212Z,39.93
2023-05-02T15:35:21.849Z,39.50
2023-05-02T15:37:48.950Z,40.48
2023-05-02T15:40:16.931Z,39.83
2023-05-02T15:42:44.362Z,39.46
2023-05-02T15:45:12.605Z,39.67
2023-05-02T15:47:41.055Z,41.59
2023-05-02T15:50:11.590Z,41.61
2023-05-02T15:52:39.495Z,41.89
2023-05-02T15:55:06.892Z,42.80
2023-05-02T15:57:34.504Z,43.56
2023-05-02T16:00:02.248Z,43.22
2023-05-02T16:02:29.763Z,44.08
2023-05-02T16:04:56.615Z,44.09
2023-05-02T16:07:25.987Z,43.35
2023-05-02T16:09:53.348Z,42.55
2023-05-02T16:12:20.799Z,44.27
2023-05-02T16:14:48.503Z,44.21
2023-05-02T16:17:15.768Z,44.27
2023-05-02T16:19:43.328Z,44.01
2023-05-02T16:22:10.726Z,44.34
2023-05-02T16:24:39.905Z,44.56
2023-05-02T16:27:07.850Z,44.13
2023-05-02T16:29:35.368Z,44.96
2023-05-02T16:32:02.909Z,45.10
2023-05-02T16:34:32.032Z,45.40
2023-05-02T16:37:00.325Z,46.13
2023-05-02T16:39:29.115Z,46.38
2023-05-02T16:41:58.202Z,46.23
2023-05-02T16:44:25.424Z,46.97
2023-05-02T16:46:52.896Z,47.85
2023-05-02T16:49:20.237Z,48.12
2023-05-02T16:51:47.251Z,45.53
2023-05-02T16:54:14.657Z,46.10
2023-05-02T16:56:42.703Z,45.82
2023-05-02T16:59:15.040Z,46.59
2023-05-02T17:01:42.178Z,46.14
2023-05-02T17:04:09.212Z,45.60
2023-05-02T17:06:36.857Z,45.29
2023-05-02T17:09:04.135Z,45.66
2023-05-02T17:11:31.250Z,46.16
2023-05-02T17:13:58.409Z,46.64
2023-05-02T17:16:27.246Z,46.69
2023-05-02T17:18:55.554Z,47.41
2023-05-02T17:21:23.374Z,46.36
2023-05-02T17:23:50.936Z,46.84
2023-05-02T17:26:18.270Z,46.98
2023-05-02T17:28:46.005Z,47.26
2023-05-02T17:31:13.750Z,47.77
2023-05-02T17:33:42.875Z,48.38
2023-05-02T17:36:14.565Z,49.47
2023-05-02T17:38:41.891Z,49.31
2023-05-02T17:41:08.898Z,48.84
2023-05-02T17:43:36.927Z,49.29
2023-05-02T17:46:07.341Z,49.14
2023-05-02T17:48:34.318Z,49.39
2023-05-02T17:51:03.220Z,49.84
2023-05-02T17:53:30.450Z,49.88
2023-05-02T17:55:57.579Z,50.01
2023-05-02T17:58:24.268Z,50.05
2023-05-02T18:00:51.215Z,50.58
2023-05-02T18:03:18.481Z,50.15
2023-05-02T18:05:49.228Z,51.59
2023-05-02T18:08:22.510Z,52.54
2023-05-02T18:10:50.003Z,52.64
2023-05-02T18:13:17.330Z,55.05
2023-05-02T18:15:44.113Z,56.08
2023-05-02T18:18:11.193Z,56.77
2023-05-02T18:20:39.111Z,56.61
2023-05-02T18:23:06.219Z,57.03
2023-05-02T18:25:35.588Z,57.38
2023-05-02T18:28:02.336Z,57.83
2023-05-02T18:30:29.344Z,59.09
2023-05-02T18:32:56.860Z,59.43
2023-05-02T18:35:24.167Z,59.56
2023-05-02T18:37:54.903Z,59.38
2023-05-02T18:40:22.493Z,59.71
2023-05-02T18:42:51.440Z,61.04
2023-05-02T18:45:19.130Z,61.31
2023-05-02T18:47:46.463Z,61.43
2023-05-02T18:50:13.978Z,59.04
2023-05-02T18:52:41.553Z,57.47
2023-05-02T18:55:08.953Z,57.41
2023-05-02T18:57:36.499Z,56.65
2023-05-02T19:00:07.018Z,57.03
2023-05-02T19:02:34.895Z,57.81
2023-05-02T19:05:05.801Z,58.34
2023-05-02T19:07:34.638Z,58.68
2023-05-02T19:10:02.427Z,59.29
2023-05-02T19:12:31.331Z,59.45
2023-05-02T19:14:58.855Z,59.92
2023-05-02T19:17:27.968Z,60.79
2023-05-02T19:19:58.152Z,60.11
2023-05-02T19:22:25.604Z,59.78
2023-05-02T19:24:53.434Z,60.57
2023-05-02T19:27:21.125Z,62.38
2023-05-02T19:29:48.889Z,62.74
2023-05-02T19:32:16.260Z,62.73
2023-05-02T19:34:45.397Z,63.13
2023-05-02T19:37:12.852Z,63.64
2023-05-02T19:39:40.082Z,64.13
2023-05-02T19:42:07.448Z,65.21
2023-05-02T19:44:34.145Z,65.06
2023-05-02T19:47:01.269Z,65.39
2023-05-02T19:49:28.730Z,66.05
2023-05-02T19:51:57.388Z,66.16
2023-05-02T19:54:24.533Z,65.94
2023-05-02T19:56:52.362Z,65.27
2023-05-02T19:59:21.013Z,67.14
2023-05-02T20:01:48.217Z,66.48
2023-05-02T20:04:15.953Z,67.26
2023-05-02T20:06:43.169Z,67.47
2023-05-02T20:09:12.291Z,67.86
2023-05-02T20:11:39.983Z,68.59
2023-05-02T20:14:07.597Z,68.49
2023-05-02T20:16:35.378Z,68.63
2023-05-02T20:19:03.338Z,68.42
2023-05-02T20:21:30.886Z,68.32
2023-05-02T20:23:58.404Z,68.60
2023-05-02T20:26:27.710Z,68.72
2023-05-02T20:28:55.075Z,67.87
2023-05-02T20:31:22.623Z,69.19
2023-05-02T20:33:50.330Z,69.24
2023-05-02T20:36:17.635Z,69.23
2023-05-02T20:38:47.415Z,72.26
2023-05-02T20:41:14.782Z,72.31
2023-05-02T20:43:43.538Z,73.53
2023-05-02T20:46:11.288Z,74.17
2023-05-02T20:48:39.106Z,74.06
2023-05-02T20:51:06.334Z,74.06
2023-05-02T20:53:34.802Z,74.83
2023-05-02T20:56:02.266Z,76.20
2023-05-02T20:58:29.452Z,76.55
2023-05-02T21:00:58.859Z,76.57
2023-05-02T21:03:28.121Z,77.87
2023-05-02T21:05:56.832Z,78.53
2023-05-02T21:08:24.324Z,76.77
2023-05-02T21:10:53.616Z,76.69
2023-05-02T21:13:21.058Z,77.05
2023-05-02T21:15:48.865Z,78.38
2023-05-02T21:18:18.705Z,78.05
2023-05-02T21:20:48.982Z,79.22
2023-05-02T21:23:15.952Z,79.36
2023-05-02T21:25:43.666Z,78.06
2023-05-02T21:28:11.377Z,78.17
2023-05-02T21:30:39.436Z,78.88
2023-05-02T21:33:07.298Z,79.54
2023-05-02T21:35:36.130Z,81.22
2023-05-02T21:38:03.763Z,81.76
2023-05-02T21:40:31.245Z,80.89
2023-05-02T21:42:58.651Z,81.32
2023-05-02T21:45:25.926Z,81.83
2023-05-02T21:47:53.456Z,79.97
2023-05-02T21:50:21.193Z,80.78
2023-05-02T21:52:49.982Z,81.55
2023-05-02T21:55:17.335Z,80.92
2023-05-02T21:57:45.000Z,81.72
2023-05-02T22:00:14.061Z,81.77
2023-05-02T22:02:41.491Z,81.52
2023-05-02T22:05:09.367Z,81.41
2023-05-02T22:07:36.807Z,82.10
2023-05-02T22:10:06.815Z,82.27
2023-05-02T22:12:34.285Z,81.44
2023-05-02T22:15:08.836Z,83.58
2023-05-02T22:17:35.906Z,83.01
2023-05-02T22:20:03.921Z,82.66
2023-05-02T22:22:30.894Z,82.75
2023-05-02T22:24:58.196Z,82.43
2023-05-02T22:27:27.432Z,81.72
2023-05-02T22:29:55.227Z,83.53
2023-05-02T22:32:23.100Z,86.23
2023-05-02T22:34:50.431Z,85.32
2023-05-02T22:37:17.852Z,83.44
2023-05-02T22:39:45.350Z,82.35
2023-05-02T22:42:12.591Z,83.85
2023-05-02T22:44:53.258Z,83.46
2023-05-02T22:47:22.017Z,83.85
2023-05-02T22:49:49.147Z,85.09
2023-05-02T22:52:16.574Z,82.88
2023-05-02T22:54:45.095Z,83.08
2023-05-02T22:57:12.509Z,82.83
2023-05-02T22:59:41.411Z,82.10
2023-05-02T23:02:10.392Z,82.26
2023-05-02T23:04:37.879Z,82.56
2023-05-02T23:07:05.188Z,82.03
2023-05-02T23:09:32.830Z,83.65
2023-05-02T23:12:00.073Z,84.58
2023-05-02T23:14:27.894Z,83.27
2023-05-02T23:16:56.924Z,85.11
2023-05-02T23:19:24.679Z,83.88
2023-05-02T23:21:52.740Z,83.55
2023-05-02T23:24:19.838Z,83.81
2023-05-02T23:26:47.183Z,83.97
2023-05-02T23:29:14.670Z,83.66
2023-05-02T23:31:42.755Z,83.17
2023-05-02T23:34:12.721Z,83.86
2023-05-02T23:36:39.556Z,84.04
2023-05-02T23:39:06.778Z,83.88
2023-05-02T23:41:34.449Z,83.63
2023-05-02T23:44:01.782Z,84.92
2023-05-02T23:46:28.978Z,83.64
2023-05-02T23:48:56.156Z,83.44
2023-05-02T23:51:25.863Z,83.59
2023-05-02T23:53:52.648Z,83.16
2023-05-02T23:56:19.886Z,84.38
2023-05-02T23:58:48.432Z,84.10
